Friday, May 25, 2018, 1:00 PM GMT
Back to Local

CWSS, St. Stephen, N. B.

Location: , , Canada Lat: 45.217
Local Time: 1:00 PM GMT (13:00 GMT) Lon: -67.25
Time Zone: GMT Elev: 85 ft

Show me the last for .
Show Coded

Time T Td Feel RH Dir Speed Gust Alt SLP Vis Weather Sky Remarks
2018-05-25 12:00 56 49 - 76 220° 3 - - 29.70 0 None
2018-05-25 11:00 51 48 - 89 130° 1 - - 29.72 0 None
2018-05-25 10:00 49 47 - 91 140° 1 - - 29.73 0 None
2018-05-25 09:00 49 46 48 92 160° 3 - - 29.77 0 1-hr Precip Total: 0.01"
2018-05-25 08:00 48 44 47 88 130° 3 - - 29.79 0 Pressure falling rapidly
2018-05-25 07:00 49 45 48 86 170° 3 - - 29.85 0 None
2018-05-25 06:00 49 42 48 77 200° 3 - - 29.87 0 None
2018-05-25 05:00 48 42 - 80 200° 2 - - 29.91 0 None
2018-05-25 04:00 48 41 44 76 220° 8 - - 29.96 0 None
2018-05-25 03:00 48 38 46 68 230° 6 - - 29.98 0 None
2018-05-25 02:00 48 37 - 66 200° 2 - - 30.00 0 None
2018-05-25 01:00 49 35 47 58 210° 6 - - 30.00 0 None
2018-05-25 00:00 50 35 48 55 190° 6 - - 29.99 0 Peak wind: 20 mph (18 kts) from 210° at 47 min
2018-05-24 23:00 54 35 - 47 180° 8 - - 30.00 0 None
2018-05-24 22:00 58 33 - 39 170° 9 - - 29.99 0 Peak wind: 19 mph (17 kts) from 180° at 19 min
2018-05-24 21:00 60 38 - 45 190° 13 20 - 30.00 0 Peak wind: 27 mph (24 kts) from 160° at 29 min
2018-05-24 20:00 61 40 - 46 190° 10 17 - 30.01 0 None
2018-05-24 19:00 62 37 - 38 230° 8 - - 30.02 0 None
2018-05-24 18:00 63 34 - 33 290° 7 - - 30.04 0 None
2018-05-24 17:00 59 28 - 30 200° 3 - - 30.07 0 None
2018-05-24 16:00 58 29 - 32 10° 2 - - 30.09 0 None
2018-05-24 15:00 54 32 - 42 290° 2 - - 30.10 0 None
2018-05-24 14:00 52 39 - 62 120° 2 - - 30.11 0 None

Support USWX by starting your Amazon purchase here.